sensor_id;sensor_type;location;lat;lon;timestamp;P1;durP1;ratioP1;P2;durP2;ratioP2
68449;SDS011;67758;39.572;2.652;2023-05-28T00:02:24;11.20;;;3.60;;
68449;SDS011;67758;39.572;2.652;2023-05-28T00:04:54;15.27;;;3.33;;
68449;SDS011;67758;39.572;2.652;2023-05-28T00:07:20;9.95;;;3.15;;
68449;SDS011;67758;39.572;2.652;2023-05-28T00:09:48;12.32;;;3.45;;
68449;SDS011;67758;39.572;2.652;2023-05-28T00:12:14;13.23;;;3.57;;
68449;SDS011;67758;39.572;2.652;2023-05-28T00:14:40;10.67;;;3.23;;
68449;SDS011;67758;39.572;2.652;2023-05-28T00:17:07;16.53;;;4.27;;
68449;SDS011;67758;39.572;2.652;2023-05-28T00:19:34;12.55;;;3.58;;
68449;SDS011;67758;39.572;2.652;2023-05-28T00:21:59;17.55;;;3.45;;
68449;SDS011;67758;39.572;2.652;2023-05-28T00:24:25;11.80;;;3.40;;
68449;SDS011;67758;39.572;2.652;2023-05-28T00:26:51;13.05;;;3.05;;
68449;SDS011;67758;39.572;2.652;2023-05-28T00:29:17;12.83;;;2.70;;
68449;SDS011;67758;39.572;2.652;2023-05-28T00:31:42;11.45;;;3.03;;
68449;SDS011;67758;39.572;2.652;2023-05-28T00:34:11;12.35;;;2.85;;
68449;SDS011;67758;39.572;2.652;2023-05-28T00:36:36;12.80;;;2.77;;
68449;SDS011;67758;39.572;2.652;2023-05-28T00:39:02;10.90;;;2.73;;
68449;SDS011;67758;39.572;2.652;2023-05-28T00:41:30;12.63;;;3.03;;
68449;SDS011;67758;39.572;2.652;2023-05-28T00:43:56;8.40;;;2.90;;
68449;SDS011;67758;39.572;2.652;2023-05-28T00:46:21;15.90;;;3.50;;
68449;SDS011;67758;39.572;2.652;2023-05-28T00:48:48;13.50;;;3.13;;
68449;SDS011;67758;39.572;2.652;2023-05-28T00:51:15;9.73;;;2.78;;
68449;SDS011;67758;39.572;2.652;2023-05-28T00:53:42;13.73;;;3.05;;
68449;SDS011;67758;39.572;2.652;2023-05-28T00:56:09;11.57;;;2.70;;
68449;SDS011;67758;39.572;2.652;2023-05-28T00:58:40;10.93;;;2.40;;
68449;SDS011;67758;39.572;2.652;2023-05-28T01:01:08;12.63;;;3.07;;
68449;SDS011;67758;39.572;2.652;2023-05-28T01:03:36;12.98;;;3.35;;
68449;SDS011;67758;39.572;2.652;2023-05-28T01:06:08;16.45;;;3.15;;
68449;SDS011;67758;39.572;2.652;2023-05-28T01:08:38;15.02;;;2.95;;
68449;SDS011;67758;39.572;2.652;2023-05-28T01:11:09;14.88;;;3.22;;
68449;SDS011;67758;39.572;2.652;2023-05-28T01:13:38;13.37;;;3.20;;
68449;SDS011;67758;39.572;2.652;2023-05-28T01:16:08;15.88;;;2.80;;
68449;SDS011;67758;39.572;2.652;2023-05-28T01:18:34;11.70;;;2.85;;
68449;SDS011;67758;39.572;2.652;2023-05-28T01:21:02;12.80;;;3.72;;
68449;SDS011;67758;39.572;2.652;2023-05-28T01:23:35;17.30;;;3.25;;
68449;SDS011;67758;39.572;2.652;2023-05-28T01:26:05;13.57;;;2.70;;
68449;SDS011;67758;39.572;2.652;2023-05-28T01:28:32;14.32;;;3.00;;
68449;SDS011;67758;39.572;2.652;2023-05-28T01:31:00;12.07;;;3.50;;
68449;SDS011;67758;39.572;2.652;2023-05-28T01:33:26;11.40;;;3.30;;
68449;SDS011;67758;39.572;2.652;2023-05-28T01:35:52;13.05;;;3.60;;
68449;SDS011;67758;39.572;2.652;2023-05-28T01:38:21;15.83;;;3.40;;
68449;SDS011;67758;39.572;2.652;2023-05-28T01:40:52;12.43;;;2.92;;
68449;SDS011;67758;39.572;2.652;2023-05-28T01:43:19;11.82;;;3.50;;
68449;SDS011;67758;39.572;2.652;2023-05-28T01:45:46;11.23;;;3.55;;
68449;SDS011;67758;39.572;2.652;2023-05-28T01:48:13;16.30;;;3.55;;
68449;SDS011;67758;39.572;2.652;2023-05-28T01:50:42;12.23;;;3.47;;
68449;SDS011;67758;39.572;2.652;2023-05-28T01:53:08;16.02;;;3.42;;
68449;SDS011;67758;39.572;2.652;2023-05-28T01:55:33;14.73;;;3.10;;
68449;SDS011;67758;39.572;2.652;2023-05-28T01:57:59;17.07;;;3.30;;
68449;SDS011;67758;39.572;2.652;2023-05-28T02:00:25;11.83;;;2.90;;
68449;SDS011;67758;39.572;2.652;2023-05-28T02:02:51;15.30;;;3.30;;
68449;SDS011;67758;39.572;2.652;2023-05-28T02:05:17;11.73;;;3.35;;
68449;SDS011;67758;39.572;2.652;2023-05-28T02:07:42;15.70;;;3.20;;
68449;SDS011;67758;39.572;2.652;2023-05-28T02:10:08;13.35;;;3.00;;
68449;SDS011;67758;39.572;2.652;2023-05-28T02:12:34;15.38;;;2.78;;
68449;SDS011;67758;39.572;2.652;2023-05-28T02:15:00;12.03;;;3.00;;
68449;SDS011;67758;39.572;2.652;2023-05-28T02:17:26;11.35;;;3.25;;
68449;SDS011;67758;39.572;2.652;2023-05-28T02:19:55;11.07;;;3.10;;
68449;SDS011;67758;39.572;2.652;2023-05-28T02:22:24;11.27;;;2.97;;
68449;SDS011;67758;39.572;2.652;2023-05-28T02:24:49;22.98;;;3.42;;
68449;SDS011;67758;39.572;2.652;2023-05-28T02:27:15;10.17;;;2.97;;
68449;SDS011;67758;39.572;2.652;2023-05-28T02:29:41;12.40;;;2.90;;
68449;SDS011;67758;39.572;2.652;2023-05-28T02:32:08;12.98;;;3.40;;
68449;SDS011;67758;39.572;2.652;2023-05-28T02:34:34;12.27;;;3.17;;
68449;SDS011;67758;39.572;2.652;2023-05-28T02:36:59;12.47;;;2.83;;
68449;SDS011;67758;39.572;2.652;2023-05-28T02:39:26;10.47;;;2.70;;
68449;SDS011;67758;39.572;2.652;2023-05-28T02:41:51;12.43;;;2.83;;
68449;SDS011;67758;39.572;2.652;2023-05-28T02:44:18;15.02;;;3.83;;
68449;SDS011;67758;39.572;2.652;2023-05-28T02:46:44;11.47;;;2.93;;
68449;SDS011;67758;39.572;2.652;2023-05-28T02:49:10;17.17;;;3.08;;
68449;SDS011;67758;39.572;2.652;2023-05-28T02:51:35;10.90;;;3.07;;
68449;SDS011;67758;39.572;2.652;2023-05-28T02:54:01;14.50;;;2.90;;
68449;SDS011;67758;39.572;2.652;2023-05-28T02:56:27;11.13;;;2.30;;
68449;SDS011;67758;39.572;2.652;2023-05-28T02:58:52;12.17;;;2.67;;
68449;SDS011;67758;39.572;2.652;2023-05-28T03:01:18;12.50;;;3.00;;
68449;SDS011;67758;39.572;2.652;2023-05-28T03:03:44;15.73;;;2.93;;
68449;SDS011;67758;39.572;2.652;2023-05-28T03:06:09;13.00;;;2.83;;
68449;SDS011;67758;39.572;2.652;2023-05-28T03:08:36;11.98;;;3.10;;
68449;SDS011;67758;39.572;2.652;2023-05-28T03:11:02;11.50;;;2.70;;
68449;SDS011;67758;39.572;2.652;2023-05-28T03:13:29;10.45;;;2.60;;
68449;SDS011;67758;39.572;2.652;2023-05-28T03:15:55;12.23;;;2.47;;
68449;SDS011;67758;39.572;2.652;2023-05-28T03:18:24;13.10;;;2.80;;
68449;SDS011;67758;39.572;2.652;2023-05-28T03:20:51;12.35;;;3.17;;
68449;SDS011;67758;39.572;2.652;2023-05-28T03:23:17;12.32;;;2.72;;
68449;SDS011;67758;39.572;2.652;2023-05-28T03:25:42;14.80;;;2.87;;
68449;SDS011;67758;39.572;2.652;2023-05-28T03:28:08;11.87;;;2.70;;
68449;SDS011;67758;39.572;2.652;2023-05-28T03:30:33;16.55;;;2.60;;
68449;SDS011;67758;39.572;2.652;2023-05-28T03:32:59;11.87;;;3.17;;
68449;SDS011;67758;39.572;2.652;2023-05-28T03:35:25;15.85;;;3.10;;
68449;SDS011;67758;39.572;2.652;2023-05-28T03:37:52;13.53;;;3.50;;
68449;SDS011;67758;39.572;2.652;2023-05-28T03:40:18;13.40;;;2.60;;
68449;SDS011;67758;39.572;2.652;2023-05-28T03:42:44;11.38;;;2.80;;
68449;SDS011;67758;39.572;2.652;2023-05-28T03:45:10;11.70;;;2.93;;
68449;SDS011;67758;39.572;2.652;2023-05-28T03:47:36;11.85;;;2.60;;
68449;SDS011;67758;39.572;2.652;2023-05-28T03:50:01;11.73;;;2.80;;
68449;SDS011;67758;39.572;2.652;2023-05-28T03:52:29;9.73;;;2.60;;
68449;SDS011;67758;39.572;2.652;2023-05-28T03:54:55;12.93;;;2.40;;
68449;SDS011;67758;39.572;2.652;2023-05-28T03:57:21;12.85;;;2.83;;
68449;SDS011;67758;39.572;2.652;2023-05-28T03:59:46;12.40;;;2.87;;
68449;SDS011;67758;39.572;2.652;2023-05-28T04:02:12;14.10;;;2.75;;
68449;SDS011;67758;39.572;2.652;2023-05-28T04:04:38;9.97;;;2.67;;
68449;SDS011;67758;39.572;2.652;2023-05-28T04:07:03;12.88;;;2.65;;
68449;SDS011;67758;39.572;2.652;2023-05-28T04:09:29;16.77;;;2.93;;
68449;SDS011;67758;39.572;2.652;2023-05-28T04:11:55;12.98;;;2.53;;
68449;SDS011;67758;39.572;2.652;2023-05-28T04:14:21;11.90;;;2.73;;
68449;SDS011;67758;39.572;2.652;2023-05-28T04:16:47;14.98;;;2.85;;
68449;SDS011;67758;39.572;2.652;2023-05-28T04:19:14;16.80;;;2.77;;
68449;SDS011;67758;39.572;2.652;2023-05-28T04:21:41;10.18;;;2.45;;
68449;SDS011;67758;39.572;2.652;2023-05-28T04:24:10;11.77;;;2.97;;
68449;SDS011;67758;39.572;2.652;2023-05-28T04:26:36;16.20;;;2.87;;
68449;SDS011;67758;39.572;2.652;2023-05-28T04:29:02;12.38;;;2.80;;
68449;SDS011;67758;39.572;2.652;2023-05-28T04:31:28;12.10;;;2.80;;
68449;SDS011;67758;39.572;2.652;2023-05-28T04:33:54;10.13;;;2.50;;
68449;SDS011;67758;39.572;2.652;2023-05-28T04:36:20;19.17;;;3.00;;
68449;SDS011;67758;39.572;2.652;2023-05-28T04:38:45;15.48;;;2.90;;
68449;SDS011;67758;39.572;2.652;2023-05-28T04:41:12;10.17;;;2.53;;
68449;SDS011;67758;39.572;2.652;2023-05-28T04:43:45;10.30;;;2.80;;
68449;SDS011;67758;39.572;2.652;2023-05-28T04:46:10;15.27;;;2.67;;
68449;SDS011;67758;39.572;2.652;2023-05-28T04:48:36;14.30;;;2.70;;
68449;SDS011;67758;39.572;2.652;2023-05-28T04:51:03;12.95;;;2.70;;
68449;SDS011;67758;39.572;2.652;2023-05-28T04:53:29;13.55;;;2.75;;
68449;SDS011;67758;39.572;2.652;2023-05-28T04:55:56;16.93;;;2.97;;
68449;SDS011;67758;39.572;2.652;2023-05-28T04:58:23;13.40;;;2.75;;
68449;SDS011;67758;39.572;2.652;2023-05-28T05:00:48;15.23;;;3.38;;
68449;SDS011;67758;39.572;2.652;2023-05-28T05:03:14;14.23;;;2.80;;
68449;SDS011;67758;39.572;2.652;2023-05-28T05:05:40;18.73;;;2.90;;
68449;SDS011;67758;39.572;2.652;2023-05-28T05:08:07;15.20;;;3.03;;
68449;SDS011;67758;39.572;2.652;2023-05-28T05:10:34;13.07;;;3.22;;
68449;SDS011;67758;39.572;2.652;2023-05-28T05:13:00;15.70;;;3.10;;
68449;SDS011;67758;39.572;2.652;2023-05-28T05:15:26;14.17;;;2.57;;
68449;SDS011;67758;39.572;2.652;2023-05-28T05:17:52;12.88;;;3.17;;
68449;SDS011;67758;39.572;2.652;2023-05-28T05:20:18;14.15;;;3.08;;
68449;SDS011;67758;39.572;2.652;2023-05-28T05:22:43;14.60;;;3.40;;
68449;SDS011;67758;39.572;2.652;2023-05-28T05:25:09;14.35;;;3.60;;
68449;SDS011;67758;39.572;2.652;2023-05-28T05:27:35;15.23;;;2.90;;
68449;SDS011;67758;39.572;2.652;2023-05-28T05:30:03;15.65;;;3.22;;
68449;SDS011;67758;39.572;2.652;2023-05-28T05:32:31;15.35;;;3.33;;
68449;SDS011;67758;39.572;2.652;2023-05-28T05:34:57;17.60;;;3.17;;
68449;SDS011;67758;39.572;2.652;2023-05-28T05:37:25;12.38;;;2.90;;
68449;SDS011;67758;39.572;2.652;2023-05-28T05:39:51;11.30;;;2.63;;
68449;SDS011;67758;39.572;2.652;2023-05-28T05:42:17;14.43;;;2.90;;
68449;SDS011;67758;39.572;2.652;2023-05-28T05:44:43;18.08;;;3.67;;
68449;SDS011;67758;39.572;2.652;2023-05-28T05:47:09;17.90;;;3.30;;
68449;SDS011;67758;39.572;2.652;2023-05-28T05:49:35;13.75;;;3.33;;
68449;SDS011;67758;39.572;2.652;2023-05-28T05:52:01;11.33;;;3.10;;
68449;SDS011;67758;39.572;2.652;2023-05-28T05:54:28;13.75;;;3.25;;
68449;SDS011;67758;39.572;2.652;2023-05-28T05:56:54;13.73;;;3.07;;
68449;SDS011;67758;39.572;2.652;2023-05-28T05:59:19;17.83;;;3.40;;
68449;SDS011;67758;39.572;2.652;2023-05-28T06:01:46;14.45;;;2.90;;
68449;SDS011;67758;39.572;2.652;2023-05-28T06:04:12;16.53;;;3.33;;
68449;SDS011;67758;39.572;2.652;2023-05-28T06:06:37;14.73;;;2.93;;
68449;SDS011;67758;39.572;2.652;2023-05-28T06:09:04;17.30;;;3.70;;
68449;SDS011;67758;39.572;2.652;2023-05-28T06:11:31;13.52;;;3.17;;
68449;SDS011;67758;39.572;2.652;2023-05-28T06:13:58;14.70;;;3.15;;
68449;SDS011;67758;39.572;2.652;2023-05-28T06:16:24;13.90;;;3.50;;
68449;SDS011;67758;39.572;2.652;2023-05-28T06:18:54;16.00;;;3.10;;
68449;SDS011;67758;39.572;2.652;2023-05-28T06:21:21;10.02;;;2.45;;
68449;SDS011;67758;39.572;2.652;2023-05-28T06:23:46;16.83;;;4.00;;
68449;SDS011;67758;39.572;2.652;2023-05-28T06:26:12;17.48;;;3.45;;
68449;SDS011;67758;39.572;2.652;2023-05-28T06:28:39;18.27;;;3.40;;
68449;SDS011;67758;39.572;2.652;2023-05-28T06:31:05;18.15;;;3.50;;
68449;SDS011;67758;39.572;2.652;2023-05-28T06:33:33;13.60;;;3.50;;
68449;SDS011;67758;39.572;2.652;2023-05-28T06:36:02;19.60;;;3.50;;
68449;SDS011;67758;39.572;2.652;2023-05-28T06:38:28;14.00;;;3.25;;
68449;SDS011;67758;39.572;2.652;2023-05-28T06:41:02;14.13;;;3.40;;
68449;SDS011;67758;39.572;2.652;2023-05-28T06:43:28;15.00;;;3.53;;
68449;SDS011;67758;39.572;2.652;2023-05-28T06:45:56;13.52;;;3.15;;
68449;SDS011;67758;39.572;2.652;2023-05-28T06:48:21;13.97;;;3.13;;
68449;SDS011;67758;39.572;2.652;2023-05-28T06:50:47;18.65;;;3.00;;
68449;SDS011;67758;39.572;2.652;2023-05-28T06:53:15;14.18;;;2.95;;
68449;SDS011;67758;39.572;2.652;2023-05-28T06:55:41;14.63;;;3.63;;
68449;SDS011;67758;39.572;2.652;2023-05-28T06:58:07;13.57;;;3.42;;
68449;SDS011;67758;39.572;2.652;2023-05-28T07:00:41;13.50;;;3.03;;
68449;SDS011;67758;39.572;2.652;2023-05-28T07:03:08;15.45;;;3.10;;
68449;SDS011;67758;39.572;2.652;2023-05-28T07:05:34;16.47;;;4.20;;
68449;SDS011;67758;39.572;2.652;2023-05-28T07:08:03;24.00;;;8.88;;
68449;SDS011;67758;39.572;2.652;2023-05-28T07:10:32;12.75;;;3.80;;
68449;SDS011;67758;39.572;2.652;2023-05-28T07:13:01;12.38;;;3.40;;
68449;SDS011;67758;39.572;2.652;2023-05-28T07:15:30;15.47;;;3.23;;
68449;SDS011;67758;39.572;2.652;2023-05-28T07:17:56;17.98;;;3.88;;
68449;SDS011;67758;39.572;2.652;2023-05-28T07:20:22;13.68;;;3.08;;
68449;SDS011;67758;39.572;2.652;2023-05-28T07:22:49;14.30;;;3.40;;
68449;SDS011;67758;39.572;2.652;2023-05-28T07:25:23;14.75;;;3.80;;
68449;SDS011;67758;39.572;2.652;2023-05-28T07:27:48;11.70;;;3.17;;
68449;SDS011;67758;39.572;2.652;2023-05-28T07:30:16;8.87;;;2.63;;
68449;SDS011;67758;39.572;2.652;2023-05-28T07:32:46;10.55;;;2.83;;
68449;SDS011;67758;39.572;2.652;2023-05-28T07:35:15;10.13;;;3.08;;
68449;SDS011;67758;39.572;2.652;2023-05-28T07:37:44;13.57;;;3.30;;
68449;SDS011;67758;39.572;2.652;2023-05-28T07:40:11;9.75;;;3.15;;
68449;SDS011;67758;39.572;2.652;2023-05-28T07:42:40;11.77;;;3.60;;
68449;SDS011;67758;39.572;2.652;2023-05-28T07:45:06;11.63;;;3.67;;
68449;SDS011;67758;39.572;2.652;2023-05-28T07:47:32;12.68;;;3.45;;
68449;SDS011;67758;39.572;2.652;2023-05-28T07:49:59;8.68;;;3.00;;
68449;SDS011;67758;39.572;2.652;2023-05-28T07:52:25;10.63;;;3.33;;
68449;SDS011;67758;39.572;2.652;2023-05-28T07:54:59;13.30;;;3.33;;
68449;SDS011;67758;39.572;2.652;2023-05-28T07:57:25;12.60;;;3.63;;
68449;SDS011;67758;39.572;2.652;2023-05-28T07:59:53;12.85;;;3.10;;
68449;SDS011;67758;39.572;2.652;2023-05-28T08:02:21;13.80;;;3.15;;
68449;SDS011;67758;39.572;2.652;2023-05-28T08:04:48;8.80;;;3.23;;
68449;SDS011;67758;39.572;2.652;2023-05-28T08:07:15;11.55;;;3.30;;
68449;SDS011;67758;39.572;2.652;2023-05-28T08:09:41;13.07;;;3.53;;
68449;SDS011;67758;39.572;2.652;2023-05-28T08:12:10;15.33;;;3.17;;
68449;SDS011;67758;39.572;2.652;2023-05-28T08:14:38;11.15;;;3.47;;
68449;SDS011;67758;39.572;2.652;2023-05-28T08:17:06;12.85;;;3.42;;
68449;SDS011;67758;39.572;2.652;2023-05-28T08:19:36;11.57;;;3.45;;
68449;SDS011;67758;39.572;2.652;2023-05-28T08:22:09;10.23;;;3.47;;
68449;SDS011;67758;39.572;2.652;2023-05-28T08:24:39;10.40;;;3.53;;
68449;SDS011;67758;39.572;2.652;2023-05-28T08:27:05;12.27;;;3.10;;
68449;SDS011;67758;39.572;2.652;2023-05-28T08:29:33;10.27;;;2.92;;
68449;SDS011;67758;39.572;2.652;2023-05-28T08:31:59;10.57;;;3.50;;
68449;SDS011;67758;39.572;2.652;2023-05-28T08:34:26;13.90;;;3.75;;
68449;SDS011;67758;39.572;2.652;2023-05-28T08:36:52;9.47;;;3.20;;
68449;SDS011;67758;39.572;2.652;2023-05-28T08:39:20;8.48;;;3.10;;
68449;SDS011;67758;39.572;2.652;2023-05-28T08:41:50;9.05;;;2.92;;
68449;SDS011;67758;39.572;2.652;2023-05-28T08:44:19;11.00;;;3.10;;
68449;SDS011;67758;39.572;2.652;2023-05-28T08:46:55;9.57;;;3.08;;
68449;SDS011;67758;39.572;2.652;2023-05-28T08:49:26;10.85;;;3.35;;
68449;SDS011;67758;39.572;2.652;2023-05-28T08:51:59;9.82;;;3.45;;
68449;SDS011;67758;39.572;2.652;2023-05-28T08:54:34;11.30;;;3.47;;
68449;SDS011;67758;39.572;2.652;2023-05-28T08:57:00;11.73;;;3.50;;
68449;SDS011;67758;39.572;2.652;2023-05-28T08:59:29;10.70;;;3.28;;
68449;SDS011;67758;39.572;2.652;2023-05-28T09:01:57;11.95;;;3.33;;
68449;SDS011;67758;39.572;2.652;2023-05-28T09:04:23;9.02;;;3.25;;
68449;SDS011;67758;39.572;2.652;2023-05-28T09:06:49;8.30;;;3.17;;
68449;SDS011;67758;39.572;2.652;2023-05-28T09:09:23;10.80;;;3.30;;
68449;SDS011;67758;39.572;2.652;2023-05-28T09:11:56;8.70;;;3.20;;
68449;SDS011;67758;39.572;2.652;2023-05-28T09:14:29;9.57;;;3.28;;
68449;SDS011;67758;39.572;2.652;2023-05-28T09:16:55;10.75;;;3.80;;
68449;SDS011;67758;39.572;2.652;2023-05-28T09:19:21;11.27;;;3.58;;
68449;SDS011;67758;39.572;2.652;2023-05-28T09:21:55;9.87;;;3.00;;
68449;SDS011;67758;39.572;2.652;2023-05-28T09:24:23;11.40;;;3.30;;
68449;SDS011;67758;39.572;2.652;2023-05-28T09:26:56;10.40;;;3.22;;
68449;SDS011;67758;39.572;2.652;2023-05-28T09:29:25;10.30;;;3.53;;
68449;SDS011;67758;39.572;2.652;2023-05-28T09:31:56;12.23;;;3.42;;
68449;SDS011;67758;39.572;2.652;2023-05-28T09:34:27;12.10;;;3.73;;
68449;SDS011;67758;39.572;2.652;2023-05-28T09:37:00;7.88;;;3.25;;
68449;SDS011;67758;39.572;2.652;2023-05-28T09:39:28;10.82;;;3.50;;
68449;SDS011;67758;39.572;2.652;2023-05-28T09:42:25;11.18;;;3.95;;
68449;SDS011;67758;39.572;2.652;2023-05-28T09:44:59;10.57;;;4.10;;
68449;SDS011;67758;39.572;2.652;2023-05-28T09:47:27;10.23;;;3.30;;
68449;SDS011;67758;39.572;2.652;2023-05-28T09:49:53;10.02;;;3.42;;
68449;SDS011;67758;39.572;2.652;2023-05-28T09:52:23;10.38;;;3.45;;
68449;SDS011;67758;39.572;2.652;2023-05-28T09:54:52;10.60;;;3.50;;
68449;SDS011;67758;39.572;2.652;2023-05-28T09:57:26;10.02;;;3.35;;
68449;SDS011;67758;39.572;2.652;2023-05-28T09:59:54;11.90;;;3.67;;
68449;SDS011;67758;39.572;2.652;2023-05-28T10:02:32;10.68;;;3.88;;
68449;SDS011;67758;39.572;2.652;2023-05-28T10:05:30;10.65;;;3.55;;
68449;SDS011;67758;39.572;2.652;2023-05-28T10:08:00;9.85;;;3.45;;
68449;SDS011;67758;39.572;2.652;2023-05-28T10:10:30;13.68;;;4.25;;
68449;SDS011;67758;39.572;2.652;2023-05-28T10:12:57;10.13;;;3.83;;
68449;SDS011;67758;39.572;2.652;2023-05-28T10:15:23;10.95;;;4.05;;
68449;SDS011;67758;39.572;2.652;2023-05-28T10:17:51;11.07;;;3.75;;
68449;SDS011;67758;39.572;2.652;2023-05-28T10:20:18;11.40;;;3.70;;
68449;SDS011;67758;39.572;2.652;2023-05-28T10:22:47;14.20;;;3.70;;
68449;SDS011;67758;39.572;2.652;2023-05-28T10:25:16;10.67;;;4.40;;
68449;SDS011;67758;39.572;2.652;2023-05-28T10:27:44;15.48;;;4.18;;
68449;SDS011;67758;39.572;2.652;2023-05-28T10:33:05;13.23;;;4.10;;
68449;SDS011;67758;39.572;2.652;2023-05-28T10:35:33;16.10;;;4.50;;
68449;SDS011;67758;39.572;2.652;2023-05-28T10:38:07;10.60;;;4.05;;
68449;SDS011;67758;39.572;2.652;2023-05-28T10:40:34;13.32;;;3.80;;
68449;SDS011;67758;39.572;2.652;2023-05-28T10:43:00;11.52;;;3.85;;
68449;SDS011;67758;39.572;2.652;2023-05-28T10:45:36;14.75;;;4.28;;
68449;SDS011;67758;39.572;2.652;2023-05-28T10:48:03;11.83;;;3.50;;
68449;SDS011;67758;39.572;2.652;2023-05-28T10:50:30;10.45;;;4.00;;
68449;SDS011;67758;39.572;2.652;2023-05-28T10:53:06;14.20;;;3.80;;
68449;SDS011;67758;39.572;2.652;2023-05-28T10:55:53;11.30;;;3.70;;
68449;SDS011;67758;39.572;2.652;2023-05-28T10:58:27;8.68;;;3.80;;
68449;SDS011;67758;39.572;2.652;2023-05-28T11:03:43;10.65;;;4.00;;
68449;SDS011;67758;39.572;2.652;2023-05-28T11:06:11;12.63;;;3.78;;
68449;SDS011;67758;39.572;2.652;2023-05-28T11:08:46;12.52;;;4.25;;
68449;SDS011;67758;39.572;2.652;2023-05-28T11:11:14;13.35;;;3.63;;
68449;SDS011;67758;39.572;2.652;2023-05-28T11:13:50;11.50;;;3.57;;
68449;SDS011;67758;39.572;2.652;2023-05-28T11:16:16;13.35;;;4.55;;
68449;SDS011;67758;39.572;2.652;2023-05-28T11:18:59;13.52;;;3.85;;
68449;SDS011;67758;39.572;2.652;2023-05-28T11:21:28;12.00;;;4.32;;
68449;SDS011;67758;39.572;2.652;2023-05-28T11:24:01;14.38;;;4.28;;
68449;SDS011;67758;39.572;2.652;2023-05-28T11:26:28;12.43;;;3.80;;
68449;SDS011;67758;39.572;2.652;2023-05-28T11:29:03;12.32;;;4.20;;
68449;SDS011;67758;39.572;2.652;2023-05-28T11:31:37;10.02;;;3.90;;
68449;SDS011;67758;39.572;2.652;2023-05-28T11:34:06;13.35;;;4.15;;
68449;SDS011;67758;39.572;2.652;2023-05-28T11:36:42;12.57;;;3.83;;
68449;SDS011;67758;39.572;2.652;2023-05-28T11:39:08;16.80;;;4.22;;
68449;SDS011;67758;39.572;2.652;2023-05-28T11:41:34;14.27;;;4.85;;
68449;SDS011;67758;39.572;2.652;2023-05-28T11:44:00;14.43;;;3.67;;
68449;SDS011;67758;39.572;2.652;2023-05-28T11:46:26;10.90;;;3.70;;
68449;SDS011;67758;39.572;2.652;2023-05-28T11:48:52;12.73;;;4.20;;
68449;SDS011;67758;39.572;2.652;2023-05-28T11:51:21;15.07;;;3.83;;
68449;SDS011;67758;39.572;2.652;2023-05-28T11:53:47;14.60;;;4.60;;
68449;SDS011;67758;39.572;2.652;2023-05-28T11:56:13;12.53;;;4.30;;
68449;SDS011;67758;39.572;2.652;2023-05-28T11:58:43;15.75;;;4.32;;
68449;SDS011;67758;39.572;2.652;2023-05-28T12:01:14;10.00;;;3.97;;
68449;SDS011;67758;39.572;2.652;2023-05-28T12:03:43;13.20;;;3.70;;
68449;SDS011;67758;39.572;2.652;2023-05-28T12:06:11;12.10;;;4.90;;
68449;SDS011;67758;39.572;2.652;2023-05-28T12:08:38;20.27;;;4.30;;
68449;SDS011;67758;39.572;2.652;2023-05-28T12:11:04;14.55;;;5.22;;
68449;SDS011;67758;39.572;2.652;2023-05-28T12:13:31;15.80;;;4.78;;
68449;SDS011;67758;39.572;2.652;2023-05-28T12:16:11;20.40;;;6.30;;
68449;SDS011;67758;39.572;2.652;2023-05-28T12:18:41;12.98;;;4.05;;
68449;SDS011;67758;39.572;2.652;2023-05-28T12:21:13;15.30;;;4.38;;
68449;SDS011;67758;39.572;2.652;2023-05-28T12:23:47;15.68;;;5.43;;
68449;SDS011;67758;39.572;2.652;2023-05-28T12:26:13;15.87;;;5.67;;
68449;SDS011;67758;39.572;2.652;2023-05-28T12:28:45;14.23;;;4.45;;
68449;SDS011;67758;39.572;2.652;2023-05-28T12:31:10;20.55;;;5.30;;
68449;SDS011;67758;39.572;2.652;2023-05-28T12:33:36;14.87;;;3.93;;
68449;SDS011;67758;39.572;2.652;2023-05-28T12:36:02;23.60;;;9.38;;
68449;SDS011;67758;39.572;2.652;2023-05-28T12:38:28;18.27;;;6.72;;
68449;SDS011;67758;39.572;2.652;2023-05-28T12:40:53;16.97;;;5.20;;
68449;SDS011;67758;39.572;2.652;2023-05-28T12:43:19;14.02;;;5.05;;
68449;SDS011;67758;39.572;2.652;2023-05-28T12:45:46;15.97;;;5.30;;
68449;SDS011;67758;39.572;2.652;2023-05-28T12:48:12;15.98;;;4.95;;
68449;SDS011;67758;39.572;2.652;2023-05-28T12:50:37;11.10;;;4.60;;
68449;SDS011;67758;39.572;2.652;2023-05-28T12:53:03;15.13;;;5.32;;
68449;SDS011;67758;39.572;2.652;2023-05-28T12:55:30;11.50;;;4.53;;
68449;SDS011;67758;39.572;2.652;2023-05-28T12:57:56;17.67;;;5.50;;
68449;SDS011;67758;39.572;2.652;2023-05-28T13:00:23;10.93;;;4.63;;
68449;SDS011;67758;39.572;2.652;2023-05-28T13:02:51;14.85;;;5.68;;
68449;SDS011;67758;39.572;2.652;2023-05-28T13:05:17;13.57;;;5.07;;
68449;SDS011;67758;39.572;2.652;2023-05-28T13:07:43;16.47;;;5.70;;
68449;SDS011;67758;39.572;2.652;2023-05-28T13:10:10;14.07;;;6.03;;
68449;SDS011;67758;39.572;2.652;2023-05-28T13:12:36;13.40;;;4.80;;
68449;SDS011;67758;39.572;2.652;2023-05-28T13:15:04;17.98;;;5.47;;
68449;SDS011;67758;39.572;2.652;2023-05-28T13:17:31;14.10;;;4.63;;
68449;SDS011;67758;39.572;2.652;2023-05-28T13:20:00;15.33;;;6.17;;
68449;SDS011;67758;39.572;2.652;2023-05-28T13:22:31;11.32;;;4.13;;
68449;SDS011;67758;39.572;2.652;2023-05-28T13:25:00;13.02;;;5.60;;
68449;SDS011;67758;39.572;2.652;2023-05-28T13:27:30;16.05;;;6.00;;
68449;SDS011;67758;39.572;2.652;2023-05-28T13:29:56;13.32;;;5.50;;
68449;SDS011;67758;39.572;2.652;2023-05-28T13:32:23;12.67;;;5.53;;
68449;SDS011;67758;39.572;2.652;2023-05-28T13:34:50;13.40;;;4.70;;
68449;SDS011;67758;39.572;2.652;2023-05-28T13:37:16;10.43;;;4.22;;
68449;SDS011;67758;39.572;2.652;2023-05-28T13:39:42;13.85;;;4.82;;
68449;SDS011;67758;39.572;2.652;2023-05-28T13:42:07;14.83;;;3.67;;
68449;SDS011;67758;39.572;2.652;2023-05-28T13:44:34;10.65;;;3.33;;
68449;SDS011;67758;39.572;2.652;2023-05-28T13:47:00;14.13;;;3.70;;
68449;SDS011;67758;39.572;2.652;2023-05-28T13:49:27;14.80;;;3.75;;
68449;SDS011;67758;39.572;2.652;2023-05-28T13:51:53;10.65;;;4.10;;
68449;SDS011;67758;39.572;2.652;2023-05-28T13:54:19;15.03;;;4.53;;
68449;SDS011;67758;39.572;2.652;2023-05-28T13:56:45;12.07;;;3.80;;
68449;SDS011;67758;39.572;2.652;2023-05-28T13:59:10;12.80;;;4.28;;
68449;SDS011;67758;39.572;2.652;2023-05-28T14:01:36;12.40;;;3.10;;
68449;SDS011;67758;39.572;2.652;2023-05-28T14:04:02;12.10;;;3.10;;
68449;SDS011;67758;39.572;2.652;2023-05-28T14:06:27;9.93;;;3.43;;
68449;SDS011;67758;39.572;2.652;2023-05-28T14:08:54;9.52;;;3.03;;
68449;SDS011;67758;39.572;2.652;2023-05-28T14:11:22;10.98;;;3.17;;
68449;SDS011;67758;39.572;2.652;2023-05-28T14:13:53;13.10;;;3.13;;
68449;SDS011;67758;39.572;2.652;2023-05-28T14:16:23;14.40;;;4.37;;
68449;SDS011;67758;39.572;2.652;2023-05-28T14:18:49;10.02;;;3.15;;
68449;SDS011;67758;39.572;2.652;2023-05-28T14:21:14;16.10;;;3.50;;
68449;SDS011;67758;39.572;2.652;2023-05-28T14:23:41;11.98;;;2.85;;
68449;SDS011;67758;39.572;2.652;2023-05-28T14:26:12;12.70;;;3.30;;
68449;SDS011;67758;39.572;2.652;2023-05-28T14:28:40;14.43;;;3.87;;
68449;SDS011;67758;39.572;2.652;2023-05-28T14:31:10;11.37;;;3.60;;
68449;SDS011;67758;39.572;2.652;2023-05-28T14:33:35;13.50;;;3.60;;
68449;SDS011;67758;39.572;2.652;2023-05-28T14:36:01;12.50;;;3.60;;
68449;SDS011;67758;39.572;2.652;2023-05-28T14:38:27;9.80;;;3.90;;
68449;SDS011;67758;39.572;2.652;2023-05-28T14:40:53;12.27;;;3.83;;
68449;SDS011;67758;39.572;2.652;2023-05-28T14:43:19;12.80;;;3.50;;
68449;SDS011;67758;39.572;2.652;2023-05-28T14:45:45;12.93;;;3.30;;